Kilmarnock, VA (22482)

6:44 PM EDT on September 01, 2014 (GMT -0400)
Henrys Creek | Change Station
CLOSE
Current Station
Personal Weather Station
Location: Kilmarnock, VA
Elevation: 10 ft
Nearby Weather Stations

Elev 10 ft 37.69 °N, 76.33 °W | Updated 6 minutes ago

Mostly Cloudy
Mostly Cloudy
81.3 °F
Feels Like 87 °F
N
5.8
Wind Variable Wind from SSE

Today
High -- | Low -- °F
--% Chance of Precip.
Yesterday
High -- | Low -- °F
Precip. -- in
6:35 AM 7:34 PM
Waxing Crescent, 45% visible
Pressure 29.98 in
Visibility 10.0 miles
Clouds Scattered Clouds 7500 ft
Scattered Clouds 9000 ft
Heat Index 87 °F
Dew Point 74 °F
Humidity 79%
Rainfall 0.00 in
Snow Depth Not available.
UV 0 out of 12
Pollen 9.90 out of 12
Air Quality Not available.
Flu Activity Not available.
METAR KFYJ 012235Z AUTO 21004KT 10SM SCT075 SCT090 32/21 A2998 RMK AO2 T03230206

More Conditions Fewer Conditions

Pressure 29.98 in
Visibility 10.0 miles
Clouds Scattered Clouds 7500 ft
Scattered Clouds 9000 ft
Heat Index 87 °F
Dew Point 74 °F
Humidity 79%
Rainfall 0.00 in
Snow Depth Not available.
UV 0 out of 12
Pollen 9.90 out of 12
Air Quality Not available.
Flu Activity Not available.
METAR KFYJ 012235Z AUTO 21004KT 10SM SCT075 SCT090 32/21 A2998 RMK AO2 T03230206

More Conditions Fewer Conditions

10-Day Weather Forecast

Almanac

Astronomy

Sep. 01, 2014 Rise Set
Actual Time 6:35 AM EDT 7:34 PM EDT
Civil Twilight 6:08 AM EDT 8:01 PM EDT
Nautical Twilight 5:36 AM EDT 8:33 PM EDT
Astronomical Twilight 5:03 AM EDT 9:06 PM EDT
Moon 1:11 PM EDT 11:41 PM EDT
Length of Visible Light 13h 52m
Length of Day
12h 59m
Tomorrow will be 2m 20s shorter.
Waxing Crescent, 45% of the Moon is Illuminated
Today
Waxing Crescent
Sep 2
First Quarter
Sep 8
Full
Sep 15
Last Quarter
Sep 24
New

Today's Extremes

State Highs State Lows

Community

WunderPhotos

Upload Photos

1,749,427 photos uploaded!

Nearby

Snow Depth

Station Depth Elevation
No new snow has been reported.

Earthquake Activity

City Distance Mag. Time & Date
No recent earthquake activity has been reported nearby.
Minimum magnitude displayed is 2.5.

Coastal Water Temperatures

Place Temperature
Wachapreague, VA 84.0 °F
Lewisetta, VA 82.0 °F
Bishops Head, MD 84.9 °F

Nearby Weather Stations